sensor_id;sensor_type;location;lat;lon;timestamp;P1;durP1;ratioP1;P2;durP2;ratioP2
36971;SDS011;40554;52.122;20.678;2022-11-20T00:00:43;69.30;;;33.85;;
36971;SDS011;40554;52.122;20.678;2022-11-20T00:02:59;70.90;;;33.53;;
36971;SDS011;40554;52.122;20.678;2022-11-20T00:05:16;69.20;;;32.17;;
36971;SDS011;40554;52.122;20.678;2022-11-20T00:07:33;70.35;;;33.40;;
36971;SDS011;40554;52.122;20.678;2022-11-20T00:09:49;75.50;;;34.75;;
36971;SDS011;40554;52.122;20.678;2022-11-20T00:12:06;71.33;;;34.55;;
36971;SDS011;40554;52.122;20.678;2022-11-20T00:14:22;78.17;;;34.88;;
36971;SDS011;40554;52.122;20.678;2022-11-20T00:16:38;72.55;;;34.35;;
36971;SDS011;40554;52.122;20.678;2022-11-20T00:18:55;72.30;;;33.53;;
36971;SDS011;40554;52.122;20.678;2022-11-20T00:21:16;72.40;;;32.90;;
36971;SDS011;40554;52.122;20.678;2022-11-20T00:23:38;79.58;;;36.30;;
36971;SDS011;40554;52.122;20.678;2022-11-20T00:25:54;82.20;;;34.50;;
36971;SDS011;40554;52.122;20.678;2022-11-20T00:28:10;73.42;;;32.53;;
36971;SDS011;40554;52.122;20.678;2022-11-20T00:30:27;70.12;;;35.08;;
36971;SDS011;40554;52.122;20.678;2022-11-20T00:32:43;70.75;;;32.55;;
36971;SDS011;40554;52.122;20.678;2022-11-20T00:34:59;75.52;;;35.35;;
36971;SDS011;40554;52.122;20.678;2022-11-20T00:37:16;65.37;;;32.78;;
36971;SDS011;40554;52.122;20.678;2022-11-20T00:39:32;66.72;;;31.80;;
36971;SDS011;40554;52.122;20.678;2022-11-20T00:41:49;70.92;;;32.40;;
36971;SDS011;40554;52.122;20.678;2022-11-20T00:44:05;70.78;;;34.00;;
36971;SDS011;40554;52.122;20.678;2022-11-20T00:46:23;70.72;;;31.90;;
36971;SDS011;40554;52.122;20.678;2022-11-20T00:48:41;61.80;;;30.75;;
36971;SDS011;40554;52.122;20.678;2022-11-20T00:50:59;63.65;;;31.17;;
36971;SDS011;40554;52.122;20.678;2022-11-20T00:53:15;67.87;;;34.38;;
36971;SDS011;40554;52.122;20.678;2022-11-20T00:55:32;66.22;;;31.25;;
36971;SDS011;40554;52.122;20.678;2022-11-20T00:57:48;68.65;;;31.70;;
36971;SDS011;40554;52.122;20.678;2022-11-20T01:00:05;69.42;;;31.45;;
36971;SDS011;40554;52.122;20.678;2022-11-20T01:02:22;61.30;;;29.25;;
36971;SDS011;40554;52.122;20.678;2022-11-20T01:04:39;70.00;;;32.93;;
36971;SDS011;40554;52.122;20.678;2022-11-20T01:06:55;67.17;;;32.23;;
36971;SDS011;40554;52.122;20.678;2022-11-20T01:09:13;59.67;;;29.05;;
36971;SDS011;40554;52.122;20.678;2022-11-20T01:11:31;53.95;;;27.25;;
36971;SDS011;40554;52.122;20.678;2022-11-20T01:13:51;57.50;;;27.58;;
36971;SDS011;40554;52.122;20.678;2022-11-20T01:16:19;60.60;;;28.47;;
36971;SDS011;40554;52.122;20.678;2022-11-20T01:18:40;52.93;;;26.42;;
36971;SDS011;40554;52.122;20.678;2022-11-20T01:21:03;57.93;;;26.68;;
36971;SDS011;40554;52.122;20.678;2022-11-20T01:23:22;58.30;;;26.17;;
36971;SDS011;40554;52.122;20.678;2022-11-20T01:25:39;55.15;;;27.98;;
36971;SDS011;40554;52.122;20.678;2022-11-20T01:27:56;57.83;;;27.77;;
36971;SDS011;40554;52.122;20.678;2022-11-20T01:30:12;54.40;;;24.90;;
36971;SDS011;40554;52.122;20.678;2022-11-20T01:32:29;53.75;;;25.27;;
36971;SDS011;40554;52.122;20.678;2022-11-20T01:34:45;52.25;;;26.07;;
36971;SDS011;40554;52.122;20.678;2022-11-20T01:37:01;55.83;;;27.05;;
36971;SDS011;40554;52.122;20.678;2022-11-20T01:39:19;51.50;;;25.65;;
36971;SDS011;40554;52.122;20.678;2022-11-20T01:41:38;53.75;;;25.65;;
36971;SDS011;40554;52.122;20.678;2022-11-20T01:44:15;51.13;;;24.12;;
36971;SDS011;40554;52.122;20.678;2022-11-20T01:46:42;49.48;;;24.02;;
36971;SDS011;40554;52.122;20.678;2022-11-20T01:51:42;53.48;;;24.63;;
36971;SDS011;40554;52.122;20.678;2022-11-20T01:54:06;49.70;;;25.25;;
36971;SDS011;40554;52.122;20.678;2022-11-20T01:56:30;49.70;;;24.52;;
36971;SDS011;40554;52.122;20.678;2022-11-20T01:58:52;52.73;;;26.20;;
36971;SDS011;40554;52.122;20.678;2022-11-20T02:01:12;54.63;;;24.90;;
36971;SDS011;40554;52.122;20.678;2022-11-20T02:03:29;49.33;;;25.30;;
36971;SDS011;40554;52.122;20.678;2022-11-20T02:08:41;49.67;;;22.85;;
36971;SDS011;40554;52.122;20.678;2022-11-20T02:10:57;49.93;;;23.00;;
36971;SDS011;40554;52.122;20.678;2022-11-20T02:13:13;48.20;;;23.62;;
36971;SDS011;40554;52.122;20.678;2022-11-20T02:15:48;42.60;;;21.33;;
36971;SDS011;40554;52.122;20.678;2022-11-20T02:18:05;43.15;;;22.80;;
36971;SDS011;40554;52.122;20.678;2022-11-20T02:20:23;47.03;;;23.80;;
36971;SDS011;40554;52.122;20.678;2022-11-20T02:22:59;48.02;;;22.58;;
36971;SDS011;40554;52.122;20.678;2022-11-20T02:25:22;45.38;;;22.00;;
36971;SDS011;40554;52.122;20.678;2022-11-20T02:27:41;46.20;;;22.87;;
36971;SDS011;40554;52.122;20.678;2022-11-20T02:29:59;50.17;;;24.12;;
36971;SDS011;40554;52.122;20.678;2022-11-20T02:34:45;50.08;;;24.52;;
36971;SDS011;40554;52.122;20.678;2022-11-20T02:37:01;50.50;;;23.52;;
36971;SDS011;40554;52.122;20.678;2022-11-20T02:39:18;52.85;;;24.80;;
36971;SDS011;40554;52.122;20.678;2022-11-20T02:41:37;48.87;;;24.45;;
36971;SDS011;40554;52.122;20.678;2022-11-20T02:43:54;48.05;;;24.25;;
36971;SDS011;40554;52.122;20.678;2022-11-20T02:46:10;55.10;;;24.37;;
36971;SDS011;40554;52.122;20.678;2022-11-20T02:48:27;55.70;;;26.95;;
36971;SDS011;40554;52.122;20.678;2022-11-20T02:50:43;55.95;;;26.25;;
36971;SDS011;40554;52.122;20.678;2022-11-20T02:52:59;52.60;;;25.75;;
36971;SDS011;40554;52.122;20.678;2022-11-20T02:55:16;57.05;;;28.07;;
36971;SDS011;40554;52.122;20.678;2022-11-20T02:57:32;48.58;;;25.23;;
36971;SDS011;40554;52.122;20.678;2022-11-20T02:59:49;53.95;;;28.23;;
36971;SDS011;40554;52.122;20.678;2022-11-20T03:02:05;57.83;;;27.02;;
36971;SDS011;40554;52.122;20.678;2022-11-20T03:04:22;60.48;;;26.95;;
36971;SDS011;40554;52.122;20.678;2022-11-20T03:06:38;63.58;;;29.27;;
36971;SDS011;40554;52.122;20.678;2022-11-20T03:08:54;61.02;;;27.85;;
36971;SDS011;40554;52.122;20.678;2022-11-20T03:11:11;60.23;;;29.23;;
36971;SDS011;40554;52.122;20.678;2022-11-20T03:13:27;56.88;;;28.95;;
36971;SDS011;40554;52.122;20.678;2022-11-20T03:15:43;58.92;;;28.92;;
36971;SDS011;40554;52.122;20.678;2022-11-20T03:18:00;67.05;;;30.23;;
36971;SDS011;40554;52.122;20.678;2022-11-20T03:20:16;62.48;;;30.00;;
36971;SDS011;40554;52.122;20.678;2022-11-20T03:22:32;62.17;;;29.85;;
36971;SDS011;40554;52.122;20.678;2022-11-20T03:24:48;64.22;;;29.92;;
36971;SDS011;40554;52.122;20.678;2022-11-20T03:27:05;63.00;;;30.82;;
36971;SDS011;40554;52.122;20.678;2022-11-20T03:29:21;62.00;;;29.27;;
36971;SDS011;40554;52.122;20.678;2022-11-20T03:31:38;69.20;;;30.90;;
36971;SDS011;40554;52.122;20.678;2022-11-20T03:33:57;61.37;;;29.05;;
36971;SDS011;40554;52.122;20.678;2022-11-20T03:36:15;61.20;;;29.98;;
36971;SDS011;40554;52.122;20.678;2022-11-20T03:38:33;64.53;;;29.32;;
36971;SDS011;40554;52.122;20.678;2022-11-20T03:40:50;59.40;;;30.27;;
36971;SDS011;40554;52.122;20.678;2022-11-20T03:43:06;51.40;;;26.68;;
36971;SDS011;40554;52.122;20.678;2022-11-20T03:45:24;57.10;;;29.23;;
36971;SDS011;40554;52.122;20.678;2022-11-20T03:47:41;64.47;;;28.75;;
36971;SDS011;40554;52.122;20.678;2022-11-20T03:49:57;68.90;;;30.88;;
36971;SDS011;40554;52.122;20.678;2022-11-20T03:52:14;59.45;;;29.00;;
36971;SDS011;40554;52.122;20.678;2022-11-20T03:54:30;63.73;;;29.57;;
36971;SDS011;40554;52.122;20.678;2022-11-20T03:56:46;69.90;;;31.65;;
36971;SDS011;40554;52.122;20.678;2022-11-20T03:59:03;65.32;;;29.85;;
36971;SDS011;40554;52.122;20.678;2022-11-20T04:01:25;65.75;;;29.98;;
36971;SDS011;40554;52.122;20.678;2022-11-20T04:03:40;58.83;;;28.83;;
36971;SDS011;40554;52.122;20.678;2022-11-20T04:06:02;59.58;;;28.17;;
36971;SDS011;40554;52.122;20.678;2022-11-20T04:08:24;68.28;;;30.90;;
36971;SDS011;40554;52.122;20.678;2022-11-20T04:10:40;58.50;;;29.07;;
36971;SDS011;40554;52.122;20.678;2022-11-20T04:12:56;64.05;;;31.80;;
36971;SDS011;40554;52.122;20.678;2022-11-20T04:15:12;63.02;;;30.35;;
36971;SDS011;40554;52.122;20.678;2022-11-20T04:17:29;56.80;;;28.92;;
36971;SDS011;40554;52.122;20.678;2022-11-20T04:19:46;63.33;;;29.20;;
36971;SDS011;40554;52.122;20.678;2022-11-20T04:22:02;59.95;;;28.20;;
36971;SDS011;40554;52.122;20.678;2022-11-20T04:24:18;66.25;;;29.77;;
36971;SDS011;40554;52.122;20.678;2022-11-20T04:26:35;65.65;;;30.65;;
36971;SDS011;40554;52.122;20.678;2022-11-20T04:28:52;67.87;;;32.08;;
36971;SDS011;40554;52.122;20.678;2022-11-20T04:31:10;70.47;;;32.88;;
36971;SDS011;40554;52.122;20.678;2022-11-20T04:33:32;67.17;;;30.25;;
36971;SDS011;40554;52.122;20.678;2022-11-20T04:35:50;61.85;;;30.65;;
36971;SDS011;40554;52.122;20.678;2022-11-20T04:38:07;59.48;;;30.48;;
36971;SDS011;40554;52.122;20.678;2022-11-20T04:40:23;66.30;;;31.05;;
36971;SDS011;40554;52.122;20.678;2022-11-20T04:42:39;69.62;;;33.02;;
36971;SDS011;40554;52.122;20.678;2022-11-20T04:44:56;70.03;;;32.15;;
36971;SDS011;40554;52.122;20.678;2022-11-20T04:47:12;78.95;;;33.10;;
36971;SDS011;40554;52.122;20.678;2022-11-20T04:49:29;63.63;;;32.15;;
36971;SDS011;40554;52.122;20.678;2022-11-20T04:51:46;72.87;;;33.83;;
36971;SDS011;40554;52.122;20.678;2022-11-20T04:54:03;75.72;;;33.55;;
36971;SDS011;40554;52.122;20.678;2022-11-20T04:56:19;76.92;;;33.50;;
36971;SDS011;40554;52.122;20.678;2022-11-20T04:58:36;71.80;;;34.88;;
36971;SDS011;40554;52.122;20.678;2022-11-20T05:00:53;79.62;;;37.25;;
36971;SDS011;40554;52.122;20.678;2022-11-20T05:03:09;75.12;;;35.30;;
36971;SDS011;40554;52.122;20.678;2022-11-20T05:05:26;73.80;;;32.90;;
36971;SDS011;40554;52.122;20.678;2022-11-20T05:07:42;71.55;;;33.42;;
36971;SDS011;40554;52.122;20.678;2022-11-20T05:09:58;68.97;;;33.98;;
36971;SDS011;40554;52.122;20.678;2022-11-20T05:12:15;75.92;;;34.45;;
36971;SDS011;40554;52.122;20.678;2022-11-20T05:14:31;79.62;;;34.48;;
36971;SDS011;40554;52.122;20.678;2022-11-20T05:16:47;77.95;;;35.23;;
36971;SDS011;40554;52.122;20.678;2022-11-20T05:19:03;79.95;;;37.33;;
36971;SDS011;40554;52.122;20.678;2022-11-20T05:21:20;70.05;;;32.55;;
36971;SDS011;40554;52.122;20.678;2022-11-20T05:23:37;75.12;;;32.70;;
36971;SDS011;40554;52.122;20.678;2022-11-20T05:25:54;74.32;;;35.95;;
36971;SDS011;40554;52.122;20.678;2022-11-20T05:28:12;77.80;;;36.28;;
36971;SDS011;40554;52.122;20.678;2022-11-20T05:30:30;75.80;;;36.63;;
36971;SDS011;40554;52.122;20.678;2022-11-20T05:32:46;77.12;;;35.05;;
36971;SDS011;40554;52.122;20.678;2022-11-20T05:35:03;85.05;;;35.98;;
36971;SDS011;40554;52.122;20.678;2022-11-20T05:37:20;82.47;;;37.35;;
36971;SDS011;40554;52.122;20.678;2022-11-20T05:39:36;84.42;;;35.40;;
36971;SDS011;40554;52.122;20.678;2022-11-20T05:41:52;75.75;;;34.73;;
36971;SDS011;40554;52.122;20.678;2022-11-20T05:44:11;79.10;;;36.53;;
36971;SDS011;40554;52.122;20.678;2022-11-20T05:46:28;85.83;;;36.98;;
36971;SDS011;40554;52.122;20.678;2022-11-20T05:48:45;82.10;;;36.40;;
36971;SDS011;40554;52.122;20.678;2022-11-20T05:51:03;77.20;;;37.63;;
36971;SDS011;40554;52.122;20.678;2022-11-20T05:53:21;88.05;;;40.25;;
36971;SDS011;40554;52.122;20.678;2022-11-20T05:55:38;87.30;;;37.83;;
36971;SDS011;40554;52.122;20.678;2022-11-20T05:57:54;95.15;;;44.80;;
36971;SDS011;40554;52.122;20.678;2022-11-20T06:00:11;101.55;;;45.17;;
36971;SDS011;40554;52.122;20.678;2022-11-20T06:02:28;102.42;;;45.48;;
36971;SDS011;40554;52.122;20.678;2022-11-20T06:04:45;93.05;;;40.63;;
36971;SDS011;40554;52.122;20.678;2022-11-20T06:07:02;99.97;;;43.02;;
36971;SDS011;40554;52.122;20.678;2022-11-20T06:09:20;93.72;;;40.08;;
36971;SDS011;40554;52.122;20.678;2022-11-20T06:11:36;90.42;;;39.33;;
36971;SDS011;40554;52.122;20.678;2022-11-20T06:13:52;91.37;;;42.10;;
36971;SDS011;40554;52.122;20.678;2022-11-20T06:16:09;98.60;;;43.78;;
36971;SDS011;40554;52.122;20.678;2022-11-20T06:18:28;102.97;;;44.08;;
36971;SDS011;40554;52.122;20.678;2022-11-20T06:20:46;96.97;;;42.50;;
36971;SDS011;40554;52.122;20.678;2022-11-20T06:23:03;103.05;;;42.90;;
36971;SDS011;40554;52.122;20.678;2022-11-20T06:25:20;115.45;;;49.45;;
36971;SDS011;40554;52.122;20.678;2022-11-20T06:27:36;107.47;;;49.55;;
36971;SDS011;40554;52.122;20.678;2022-11-20T06:29:52;101.75;;;44.15;;
36971;SDS011;40554;52.122;20.678;2022-11-20T06:32:09;100.97;;;45.73;;
36971;SDS011;40554;52.122;20.678;2022-11-20T06:34:25;108.95;;;49.25;;
36971;SDS011;40554;52.122;20.678;2022-11-20T06:36:41;100.50;;;45.85;;
36971;SDS011;40554;52.122;20.678;2022-11-20T06:38:57;100.02;;;44.95;;
36971;SDS011;40554;52.122;20.678;2022-11-20T06:41:15;92.33;;;46.55;;
36971;SDS011;40554;52.122;20.678;2022-11-20T06:43:34;101.40;;;44.33;;
36971;SDS011;40554;52.122;20.678;2022-11-20T06:45:53;91.53;;;42.13;;
36971;SDS011;40554;52.122;20.678;2022-11-20T06:48:11;96.95;;;42.35;;
36971;SDS011;40554;52.122;20.678;2022-11-20T06:50:28;91.85;;;40.80;;
36971;SDS011;40554;52.122;20.678;2022-11-20T06:52:44;92.88;;;41.00;;
36971;SDS011;40554;52.122;20.678;2022-11-20T06:55:00;94.13;;;43.13;;
36971;SDS011;40554;52.122;20.678;2022-11-20T06:57:17;97.27;;;43.65;;
36971;SDS011;40554;52.122;20.678;2022-11-20T06:59:33;102.10;;;44.25;;
36971;SDS011;40554;52.122;20.678;2022-11-20T07:01:49;99.70;;;43.80;;
36971;SDS011;40554;52.122;20.678;2022-11-20T07:04:06;103.92;;;43.65;;
36971;SDS011;40554;52.122;20.678;2022-11-20T07:06:22;100.47;;;44.80;;
36971;SDS011;40554;52.122;20.678;2022-11-20T07:08:39;90.87;;;40.52;;
36971;SDS011;40554;52.122;20.678;2022-11-20T07:10:59;90.85;;;40.08;;
36971;SDS011;40554;52.122;20.678;2022-11-20T07:15:34;84.30;;;37.63;;
36971;SDS011;40554;52.122;20.678;2022-11-20T07:17:51;96.35;;;41.33;;
36971;SDS011;40554;52.122;20.678;2022-11-20T07:20:09;97.22;;;44.25;;
36971;SDS011;40554;52.122;20.678;2022-11-20T07:22:26;90.30;;;40.50;;
36971;SDS011;40554;52.122;20.678;2022-11-20T07:24:42;102.47;;;45.35;;
36971;SDS011;40554;52.122;20.678;2022-11-20T07:26:58;98.22;;;43.23;;
36971;SDS011;40554;52.122;20.678;2022-11-20T07:29:15;95.22;;;42.30;;
36971;SDS011;40554;52.122;20.678;2022-11-20T07:31:32;87.80;;;41.60;;
36971;SDS011;40554;52.122;20.678;2022-11-20T07:33:48;90.90;;;42.58;;
36971;SDS011;40554;52.122;20.678;2022-11-20T07:36:05;95.30;;;41.95;;
36971;SDS011;40554;52.122;20.678;2022-11-20T07:38:21;90.07;;;39.73;;
36971;SDS011;40554;52.122;20.678;2022-11-20T07:40:37;80.77;;;38.50;;
36971;SDS011;40554;52.122;20.678;2022-11-20T07:42:54;90.40;;;39.55;;
36971;SDS011;40554;52.122;20.678;2022-11-20T07:45:11;90.10;;;41.95;;
36971;SDS011;40554;52.122;20.678;2022-11-20T07:47:27;82.15;;;37.70;;
36971;SDS011;40554;52.122;20.678;2022-11-20T07:49:44;80.28;;;39.83;;
36971;SDS011;40554;52.122;20.678;2022-11-20T07:52:00;95.65;;;41.18;;
36971;SDS011;40554;52.122;20.678;2022-11-20T07:54:16;90.03;;;41.95;;
36971;SDS011;40554;52.122;20.678;2022-11-20T07:56:32;80.12;;;37.10;;
36971;SDS011;40554;52.122;20.678;2022-11-20T07:58:49;81.28;;;40.05;;
36971;SDS011;40554;52.122;20.678;2022-11-20T08:01:06;86.10;;;38.75;;
36971;SDS011;40554;52.122;20.678;2022-11-20T08:03:23;86.05;;;41.00;;
36971;SDS011;40554;52.122;20.678;2022-11-20T08:05:39;98.97;;;42.73;;
36971;SDS011;40554;52.122;20.678;2022-11-20T08:07:55;87.80;;;39.20;;
36971;SDS011;40554;52.122;20.678;2022-11-20T08:10:13;82.12;;;41.28;;
36971;SDS011;40554;52.122;20.678;2022-11-20T08:12:31;98.70;;;41.63;;
36971;SDS011;40554;52.122;20.678;2022-11-20T08:17:30;80.92;;;39.03;;
36971;SDS011;40554;52.122;20.678;2022-11-20T08:19:46;79.25;;;38.05;;
36971;SDS011;40554;52.122;20.678;2022-11-20T08:22:03;88.67;;;41.13;;
36971;SDS011;40554;52.122;20.678;2022-11-20T08:24:19;89.22;;;41.33;;
36971;SDS011;40554;52.122;20.678;2022-11-20T08:26:36;85.32;;;39.80;;
36971;SDS011;40554;52.122;20.678;2022-11-20T08:28:54;76.92;;;35.52;;
36971;SDS011;40554;52.122;20.678;2022-11-20T08:31:11;82.47;;;37.23;;
36971;SDS011;40554;52.122;20.678;2022-11-20T08:33:27;71.42;;;34.23;;
36971;SDS011;40554;52.122;20.678;2022-11-20T08:35:45;84.58;;;40.08;;
36971;SDS011;40554;52.122;20.678;2022-11-20T08:38:02;77.32;;;37.13;;
36971;SDS011;40554;52.122;20.678;2022-11-20T08:40:19;78.15;;;36.20;;
36971;SDS011;40554;52.122;20.678;2022-11-20T08:42:35;71.53;;;34.53;;
36971;SDS011;40554;52.122;20.678;2022-11-20T08:44:51;82.65;;;38.78;;
36971;SDS011;40554;52.122;20.678;2022-11-20T08:47:08;73.65;;;36.48;;
36971;SDS011;40554;52.122;20.678;2022-11-20T08:49:24;85.87;;;40.10;;
36971;SDS011;40554;52.122;20.678;2022-11-20T08:51:40;74.00;;;38.02;;
36971;SDS011;40554;52.122;20.678;2022-11-20T08:53:57;78.70;;;39.03;;
36971;SDS011;40554;52.122;20.678;2022-11-20T08:56:14;76.53;;;36.55;;
36971;SDS011;40554;52.122;20.678;2022-11-20T08:58:31;78.15;;;37.85;;
36971;SDS011;40554;52.122;20.678;2022-11-20T09:00:47;73.90;;;38.65;;
36971;SDS011;40554;52.122;20.678;2022-11-20T09:03:03;76.80;;;37.15;;
36971;SDS011;40554;52.122;20.678;2022-11-20T09:05:20;77.90;;;38.00;;
36971;SDS011;40554;52.122;20.678;2022-11-20T09:07:36;79.15;;;38.73;;
36971;SDS011;40554;52.122;20.678;2022-11-20T09:09:52;69.32;;;38.58;;
36971;SDS011;40554;52.122;20.678;2022-11-20T09:12:09;78.85;;;39.13;;
36971;SDS011;40554;52.122;20.678;2022-11-20T09:14:25;76.50;;;37.50;;
36971;SDS011;40554;52.122;20.678;2022-11-20T09:16:44;70.25;;;38.60;;
36971;SDS011;40554;52.122;20.678;2022-11-20T09:19:01;72.55;;;41.45;;
36971;SDS011;40554;52.122;20.678;2022-11-20T09:21:18;69.58;;;39.90;;
36971;SDS011;40554;52.122;20.678;2022-11-20T09:23:34;73.55;;;41.95;;
36971;SDS011;40554;52.122;20.678;2022-11-20T09:25:52;68.78;;;41.30;;
36971;SDS011;40554;52.122;20.678;2022-11-20T09:28:10;68.25;;;40.33;;
36971;SDS011;40554;52.122;20.678;2022-11-20T09:30:28;63.80;;;41.18;;
36971;SDS011;40554;52.122;20.678;2022-11-20T09:32:44;63.68;;;41.20;;
36971;SDS011;40554;52.122;20.678;2022-11-20T09:35:01;61.02;;;40.38;;
36971;SDS011;40554;52.122;20.678;2022-11-20T09:37:17;66.00;;;43.13;;
36971;SDS011;40554;52.122;20.678;2022-11-20T09:39:34;61.55;;;42.30;;
36971;SDS011;40554;52.122;20.678;2022-11-20T09:41:55;63.95;;;44.13;;
36971;SDS011;40554;52.122;20.678;2022-11-20T09:47:11;63.65;;;42.00;;
36971;SDS011;40554;52.122;20.678;2022-11-20T09:55:06;63.90;;;40.08;;
36971;SDS011;40554;52.122;20.678;2022-11-20T09:57:37;63.52;;;40.50;;
36971;SDS011;40554;52.122;20.678;2022-11-20T10:00:00;67.27;;;43.45;;
36971;SDS011;40554;52.122;20.678;2022-11-20T10:04:59;69.60;;;41.98;;
36971;SDS011;40554;52.122;20.678;2022-11-20T10:07:22;66.12;;;40.45;;
36971;SDS011;40554;52.122;20.678;2022-11-20T10:09:43;70.47;;;42.80;;
36971;SDS011;40554;52.122;20.678;2022-11-20T10:22:48;73.40;;;41.73;;
36971;SDS011;40554;52.122;20.678;2022-11-20T10:25:27;70.17;;;40.50;;
36971;SDS011;40554;52.122;20.678;2022-11-20T10:28:18;73.87;;;41.50;;
36971;SDS011;40554;52.122;20.678;2022-11-20T10:31:08;73.65;;;40.95;;
36971;SDS011;40554;52.122;20.678;2022-11-20T10:33:31;73.55;;;39.38;;
36971;SDS011;40554;52.122;20.678;2022-11-20T10:36:05;76.90;;;41.13;;
36971;SDS011;40554;52.122;20.678;2022-11-20T10:38:38;76.35;;;39.85;;
36971;SDS011;40554;52.122;20.678;2022-11-20T10:41:14;76.05;;;39.65;;
36971;SDS011;40554;52.122;20.678;2022-11-20T10:43:41;73.12;;;37.53;;
36971;SDS011;40554;52.122;20.678;2022-11-20T10:46:00;76.85;;;40.65;;
36971;SDS011;40554;52.122;20.678;2022-11-20T10:48:24;74.67;;;38.73;;
36971;SDS011;40554;52.122;20.678;2022-11-20T10:50:49;76.02;;;39.18;;
36971;SDS011;40554;52.122;20.678;2022-11-20T10:56:05;73.10;;;38.50;;
36971;SDS011;40554;52.122;20.678;2022-11-20T11:01:41;66.75;;;34.48;;
36971;SDS011;40554;52.122;20.678;2022-11-20T11:03:58;73.25;;;36.75;;
36971;SDS011;40554;52.122;20.678;2022-11-20T11:08:55;71.07;;;36.08;;
36971;SDS011;40554;52.122;20.678;2022-11-20T11:11:20;66.05;;;34.80;;
36971;SDS011;40554;52.122;20.678;2022-11-20T11:13:39;71.62;;;36.95;;
36971;SDS011;40554;52.122;20.678;2022-11-20T11:15:55;67.80;;;34.25;;
36971;SDS011;40554;52.122;20.678;2022-11-20T11:18:22;61.23;;;34.13;;
36971;SDS011;40554;52.122;20.678;2022-11-20T11:20:50;67.97;;;36.28;;
36971;SDS011;40554;52.122;20.678;2022-11-20T11:23:10;64.27;;;33.90;;
36971;SDS011;40554;52.122;20.678;2022-11-20T11:25:30;67.13;;;35.20;;
36971;SDS011;40554;52.122;20.678;2022-11-20T11:27:50;66.37;;;34.63;;
36971;SDS011;40554;52.122;20.678;2022-11-20T11:30:12;66.02;;;34.83;;
36971;SDS011;40554;52.122;20.678;2022-11-20T11:32:32;63.28;;;34.60;;
36971;SDS011;40554;52.122;20.678;2022-11-20T11:35:01;61.53;;;34.60;;
36971;SDS011;40554;52.122;20.678;2022-11-20T11:37:24;62.90;;;34.18;;
36971;SDS011;40554;52.122;20.678;2022-11-20T11:39:47;61.63;;;34.93;;
36971;SDS011;40554;52.122;20.678;2022-11-20T11:42:05;66.33;;;37.60;;
36971;SDS011;40554;52.122;20.678;2022-11-20T11:54:36;64.37;;;34.13;;
36971;SDS011;40554;52.122;20.678;2022-11-20T11:57:00;68.65;;;34.38;;
36971;SDS011;40554;52.122;20.678;2022-11-20T12:00:06;59.83;;;33.02;;
36971;SDS011;40554;52.122;20.678;2022-11-20T12:01:52;63.65;;;34.33;;
36971;SDS011;40554;52.122;20.678;2022-11-20T12:04:23;58.75;;;32.58;;
36971;SDS011;40554;52.122;20.678;2022-11-20T12:06:58;53.42;;;30.40;;
36971;SDS011;40554;52.122;20.678;2022-11-20T12:09:37;58.28;;;32.33;;
36971;SDS011;40554;52.122;20.678;2022-11-20T12:12:15;58.75;;;32.15;;
36971;SDS011;40554;52.122;20.678;2022-11-20T12:14:40;55.28;;;29.05;;
36971;SDS011;40554;52.122;20.678;2022-11-20T12:17:01;51.85;;;26.55;;
36971;SDS011;40554;52.122;20.678;2022-11-20T12:19:18;47.85;;;25.77;;
36971;SDS011;40554;52.122;20.678;2022-11-20T12:29:44;46.88;;;25.30;;
36971;SDS011;40554;52.122;20.678;2022-11-20T12:37:27;48.45;;;26.23;;
36971;SDS011;40554;52.122;20.678;2022-11-20T12:39:55;44.27;;;22.85;;
36971;SDS011;40554;52.122;20.678;2022-11-20T12:42:39;44.33;;;22.85;;
36971;SDS011;40554;52.122;20.678;2022-11-20T13:04:19;45.43;;;23.77;;
36971;SDS011;40554;52.122;20.678;2022-11-20T13:06:53;47.25;;;25.52;;
36971;SDS011;40554;52.122;20.678;2022-11-20T13:09:11;47.45;;;26.00;;
36971;SDS011;40554;52.122;20.678;2022-11-20T13:11:39;52.00;;;26.15;;
36971;SDS011;40554;52.122;20.678;2022-11-20T13:16:58;47.67;;;25.25;;
36971;SDS011;40554;52.122;20.678;2022-11-20T13:19:26;45.83;;;24.23;;
36971;SDS011;40554;52.122;20.678;2022-11-20T13:21:45;47.93;;;25.43;;
36971;SDS011;40554;52.122;20.678;2022-11-20T13:24:07;43.10;;;24.70;;
36971;SDS011;40554;52.122;20.678;2022-11-20T13:26:41;49.88;;;26.35;;
36971;SDS011;40554;52.122;20.678;2022-11-20T13:29:17;49.88;;;25.45;;
36971;SDS011;40554;52.122;20.678;2022-11-20T13:31:35;52.90;;;27.22;;
36971;SDS011;40554;52.122;20.678;2022-11-20T13:33:54;52.67;;;27.13;;
36971;SDS011;40554;52.122;20.678;2022-11-20T13:36:30;59.40;;;28.20;;
36971;SDS011;40554;52.122;20.678;2022-11-20T13:38:53;55.85;;;28.62;;
36971;SDS011;40554;52.122;20.678;2022-11-20T13:41:08;64.53;;;30.10;;
36971;SDS011;40554;52.122;20.678;2022-11-20T13:43:43;63.08;;;30.12;;
36971;SDS011;40554;52.122;20.678;2022-11-20T13:46:04;61.50;;;29.65;;
36971;SDS011;40554;52.122;20.678;2022-11-20T13:48:23;61.08;;;30.57;;
36971;SDS011;40554;52.122;20.678;2022-11-20T13:56:06;60.80;;;30.25;;
36971;SDS011;40554;52.122;20.678;2022-11-20T13:58:59;63.38;;;30.27;;
36971;SDS011;40554;52.122;20.678;2022-11-20T14:01:21;54.58;;;28.35;;
36971;SDS011;40554;52.122;20.678;2022-11-20T14:03:41;56.42;;;29.95;;
36971;SDS011;40554;52.122;20.678;2022-11-20T14:06:02;58.10;;;29.27;;
36971;SDS011;40554;52.122;20.678;2022-11-20T14:08:24;54.63;;;28.85;;
36971;SDS011;40554;52.122;20.678;2022-11-20T14:10:44;62.97;;;29.97;;
36971;SDS011;40554;52.122;20.678;2022-11-20T14:13:17;56.53;;;30.45;;
36971;SDS011;40554;52.122;20.678;2022-11-20T14:15:36;58.28;;;30.12;;
36971;SDS011;40554;52.122;20.678;2022-11-20T14:17:54;52.27;;;29.27;;
36971;SDS011;40554;52.122;20.678;2022-11-20T14:20:12;56.90;;;30.30;;
36971;SDS011;40554;52.122;20.678;2022-11-20T14:22:32;62.55;;;32.28;;
36971;SDS011;40554;52.122;20.678;2022-11-20T14:24:51;69.65;;;33.23;;
36971;SDS011;40554;52.122;20.678;2022-11-20T14:27:33;63.65;;;34.00;;
36971;SDS011;40554;52.122;20.678;2022-11-20T14:30:00;72.03;;;36.90;;
36971;SDS011;40554;52.122;20.678;2022-11-20T14:32:17;60.90;;;31.25;;
36971;SDS011;40554;52.122;20.678;2022-11-20T14:34:38;60.08;;;31.52;;
36971;SDS011;40554;52.122;20.678;2022-11-20T14:36:59;57.98;;;30.40;;
36971;SDS011;40554;52.122;20.678;2022-11-20T14:39:20;87.33;;;46.08;;
36971;SDS011;40554;52.122;20.678;2022-11-20T14:41:49;74.92;;;37.53;;
36971;SDS011;40554;52.122;20.678;2022-11-20T14:44:02;66.25;;;33.30;;
36971;SDS011;40554;52.122;20.678;2022-11-20T14:46:20;75.55;;;38.50;;
36971;SDS011;40554;52.122;20.678;2022-11-20T14:48:40;75.05;;;39.08;;
36971;SDS011;40554;52.122;20.678;2022-11-20T14:51:05;74.55;;;36.83;;
36971;SDS011;40554;52.122;20.678;2022-11-20T14:53:24;70.90;;;35.78;;
36971;SDS011;40554;52.122;20.678;2022-11-20T14:55:41;71.10;;;35.30;;
36971;SDS011;40554;52.122;20.678;2022-11-20T14:57:58;78.87;;;39.48;;